createdAt,value
2017-12-01T00:00:50.077Z,12.73
2017-12-01T00:03:22.215Z,12.03
2017-12-01T00:05:54.576Z,12.30
2017-12-01T00:08:26.484Z,12.60
2017-12-01T00:10:58.253Z,11.97
2017-12-01T00:13:30.289Z,12.10
2017-12-01T00:16:02.071Z,11.63
2017-12-01T00:18:35.278Z,11.87
2017-12-01T00:21:06.388Z,12.23
2017-12-01T00:23:37.727Z,11.70
2017-12-01T00:26:08.841Z,12.13
2017-12-01T00:28:41.523Z,12.13
2017-12-01T00:31:12.061Z,13.27
2017-12-01T00:33:42.833Z,12.63
2017-12-01T00:36:10.565Z,13.10
2017-12-01T00:38:39.557Z,12.17
2017-12-01T00:41:07.044Z,11.73
2017-12-01T00:43:34.508Z,11.13
2017-12-01T00:46:01.972Z,11.13
2017-12-01T00:48:29.457Z,11.70
2017-12-01T00:50:57.022Z,11.03
2017-12-01T00:53:24.501Z,10.33
2017-12-01T00:55:51.993Z,11.40
2017-12-01T00:58:19.466Z,11.40
2017-12-01T01:00:46.933Z,10.30
2017-12-01T01:03:14.413Z,9.83
2017-12-01T01:05:41.888Z,11.80
2017-12-01T01:08:09.381Z,10.80
2017-12-01T01:10:36.880Z,11.57
2017-12-01T01:13:04.349Z,10.20
2017-12-01T01:15:31.837Z,10.93
2017-12-01T01:17:59.305Z,10.43
2017-12-01T01:20:26.778Z,10.13
2017-12-01T01:22:54.264Z,10.00
2017-12-01T01:25:21.728Z,10.07
2017-12-01T01:27:49.220Z,10.10
2017-12-01T01:30:16.685Z,9.47
2017-12-01T01:32:44.161Z,10.47
2017-12-01T01:35:11.645Z,10.93
2017-12-01T01:37:39.108Z,10.90
2017-12-01T01:40:06.599Z,11.00
2017-12-01T01:42:34.069Z,10.60
2017-12-01T01:45:01.536Z,11.73
2017-12-01T01:47:29.020Z,11.30
2017-12-01T01:49:56.488Z,13.13
2017-12-01T01:52:24.011Z,12.40
2017-12-01T01:54:51.481Z,12.27
2017-12-01T01:57:18.972Z,11.37
2017-12-01T01:59:46.444Z,12.07
2017-12-01T02:02:14.352Z,11.50
2017-12-01T02:04:41.828Z,11.63
2017-12-01T02:07:09.328Z,10.90
2017-12-01T02:09:36.929Z,10.80
2017-12-01T02:12:04.413Z,10.00
2017-12-01T02:14:31.889Z,11.80
2017-12-01T02:16:59.393Z,11.57
2017-12-01T02:19:26.869Z,10.40
2017-12-01T02:21:54.356Z,10.90
2017-12-01T02:24:21.821Z,12.10
2017-12-01T02:26:49.305Z,11.87
2017-12-01T02:29:16.780Z,10.87
2017-12-01T02:31:44.269Z,11.50
2017-12-01T02:34:11.745Z,12.33
2017-12-01T02:36:39.264Z,11.53
2017-12-01T02:39:06.741Z,11.40
2017-12-01T02:41:34.226Z,11.43
2017-12-01T02:44:01.693Z,12.40
2017-12-01T02:46:29.176Z,12.50
2017-12-01T02:48:56.640Z,12.60
2017-12-01T02:51:24.125Z,12.60
2017-12-01T02:53:51.629Z,12.17
2017-12-01T02:56:19.117Z,12.83
2017-12-01T02:58:46.590Z,12.07
2017-12-01T03:01:14.085Z,13.33
2017-12-01T03:03:41.548Z,12.97
2017-12-01T03:06:09.039Z,13.20
2017-12-01T03:08:36.513Z,13.07
2017-12-01T03:11:04.115Z,12.70
2017-12-01T03:13:31.638Z,13.07
2017-12-01T03:15:59.093Z,13.67
2017-12-01T03:18:26.565Z,12.80
2017-12-01T03:20:54.074Z,13.90
2017-12-01T03:23:21.571Z,13.00
2017-12-01T03:25:49.049Z,13.03
2017-12-01T03:28:16.532Z,13.30
2017-12-01T03:30:44.002Z,13.10
2017-12-01T03:33:11.493Z,13.40
2017-12-01T03:35:38.960Z,13.23
2017-12-01T03:38:06.445Z,12.43
2017-12-01T03:40:34.049Z,13.97
2017-12-01T03:43:01.631Z,13.70
2017-12-01T03:45:29.153Z,12.90
2017-12-01T03:47:56.645Z,12.43
2017-12-01T03:50:24.113Z,13.63
2017-12-01T03:52:51.593Z,13.60
2017-12-01T03:55:19.057Z,12.67
2017-12-01T03:57:46.545Z,12.63
2017-12-01T04:00:14.017Z,12.53
2017-12-01T04:02:41.645Z,11.33
2017-12-01T04:05:09.109Z,12.33
2017-12-01T04:07:36.604Z,13.03
2017-12-01T04:10:04.073Z,11.00
2017-12-01T04:12:31.562Z,11.67
2017-12-01T04:14:59.057Z,12.07
2017-12-01T04:17:26.545Z,11.87
2017-12-01T04:19:54.023Z,11.37
2017-12-01T04:22:21.525Z,11.30
2017-12-01T04:24:49.008Z,11.07
2017-12-01T04:27:16.496Z,11.40
2017-12-01T04:29:44.032Z,12.93
2017-12-01T04:32:11.786Z,13.73
2017-12-01T04:34:39.253Z,14.13
2017-12-01T04:37:06.741Z,14.13
2017-12-01T04:39:34.209Z,13.30
2017-12-01T04:42:01.704Z,14.47
2017-12-01T04:44:29.173Z,13.70
2017-12-01T04:46:56.682Z,12.70
2017-12-01T04:49:24.186Z,13.20
2017-12-01T04:51:51.719Z,12.77
2017-12-01T04:54:19.222Z,13.40
2017-12-01T04:56:46.694Z,12.37
2017-12-01T04:59:14.188Z,11.00
2017-12-01T05:01:41.670Z,11.00
2017-12-01T05:04:09.156Z,10.83
2017-12-01T05:06:36.625Z,11.50
2017-12-01T05:09:04.121Z,11.87
2017-12-01T05:11:31.621Z,10.90
2017-12-01T05:13:59.113Z,11.40
2017-12-01T05:16:26.684Z,12.77
2017-12-01T05:18:54.168Z,13.43
2017-12-01T05:21:21.640Z,13.60
2017-12-01T05:23:49.128Z,13.97
2017-12-01T05:26:16.593Z,10.87
2017-12-01T05:28:44.072Z,11.53
2017-12-01T05:31:12.561Z,10.80
2017-12-01T05:33:40.073Z,11.50
2017-12-01T05:36:07.545Z,11.87
2017-12-01T05:38:35.036Z,11.57
2017-12-01T05:41:02.531Z,13.50
2017-12-01T05:43:30.072Z,12.67
2017-12-01T05:45:57.840Z,13.80
2017-12-01T05:48:29.726Z,13.43
2017-12-01T05:50:57.640Z,11.07
2017-12-01T05:53:28.648Z,11.63
2017-12-01T05:55:56.463Z,11.07
2017-12-01T05:58:23.932Z,11.17
2017-12-01T06:00:51.475Z,11.40
2017-12-01T06:03:21.870Z,12.47
2017-12-01T06:05:49.650Z,13.27
2017-12-01T06:08:17.120Z,12.60
2017-12-01T06:10:44.604Z,12.30
2017-12-01T06:13:14.473Z,12.07
2017-12-01T06:15:41.973Z,11.07
2017-12-01T06:18:09.458Z,10.93
2017-12-01T06:20:41.556Z,10.87
2017-12-01T06:23:10.416Z,11.43
2017-12-01T06:25:41.563Z,11.40
2017-12-01T06:28:09.409Z,11.57
2017-12-01T06:30:36.892Z,10.90
2017-12-01T06:33:04.381Z,10.90
2017-12-01T06:35:31.885Z,12.63
2017-12-01T06:37:59.421Z,13.63
2017-12-01T06:40:26.937Z,15.73
2017-12-01T06:42:54.404Z,16.23
2017-12-01T06:45:21.893Z,21.43
2017-12-01T06:47:49.357Z,20.60
2017-12-01T06:50:17.137Z,23.47
2017-12-01T06:52:44.600Z,22.27
2017-12-01T06:55:12.090Z,20.83
2017-12-01T06:57:39.681Z,20.13
2017-12-01T07:00:07.225Z,21.57
2017-12-01T07:02:34.713Z,19.87
2017-12-01T07:05:02.277Z,21.33
2017-12-01T07:07:29.777Z,18.93
2017-12-01T07:09:57.261Z,19.00
2017-12-01T07:12:24.760Z,19.00
2017-12-01T07:14:52.244Z,18.53
2017-12-01T07:17:19.798Z,17.80
2017-12-01T07:19:48.281Z,16.30
2017-12-01T07:22:15.744Z,14.63
2017-12-01T07:24:43.229Z,17.00
2017-12-01T07:27:10.701Z,15.67
2017-12-01T07:29:38.168Z,14.23
2017-12-01T07:32:05.653Z,16.10
2017-12-01T07:34:33.120Z,16.20
2017-12-01T07:37:00.604Z,13.23
2017-12-01T07:39:28.560Z,12.27
2017-12-01T07:41:56.156Z,12.00
2017-12-01T07:44:33.536Z,12.77
2017-12-01T07:47:01.022Z,12.87
2017-12-01T07:49:28.545Z,12.70
2017-12-01T07:51:56.025Z,12.53
2017-12-01T07:54:23.497Z,12.87
2017-12-01T07:56:51.524Z,12.93
2017-12-01T07:59:19.014Z,14.13
2017-12-01T08:01:46.500Z,12.80
2017-12-01T08:04:13.998Z,13.20
2017-12-01T08:06:41.492Z,12.80
2017-12-01T08:09:08.961Z,12.77
2017-12-01T08:11:36.556Z,13.27
2017-12-01T08:14:04.021Z,14.33
2017-12-01T08:16:43.597Z,14.50
2017-12-01T08:19:11.085Z,13.43
2017-12-01T08:21:50.858Z,14.07
2017-12-01T08:24:30.235Z,13.37
2017-12-01T08:26:57.753Z,40.23
2017-12-01T08:29:25.221Z,14.47
2017-12-01T08:31:52.710Z,15.37
2017-12-01T08:34:20.231Z,13.47
2017-12-01T08:36:47.749Z,12.67
2017-12-01T08:39:15.229Z,12.10
2017-12-01T08:41:42.765Z,12.53
2017-12-01T08:44:10.245Z,12.40
2017-12-01T08:46:37.820Z,10.80
2017-12-01T08:49:05.281Z,11.47
2017-12-01T08:51:32.761Z,10.70
2017-12-01T08:54:00.225Z,10.80
2017-12-01T08:56:27.754Z,10.33
2017-12-01T08:58:55.225Z,9.87
2017-12-01T09:01:22.713Z,11.00
2017-12-01T09:03:50.181Z,10.60
2017-12-01T09:06:17.679Z,9.97
2017-12-01T09:08:45.148Z,11.93
2017-12-01T09:11:12.629Z,12.00
2017-12-01T09:13:40.093Z,11.33
2017-12-01T09:16:07.577Z,10.70
2017-12-01T09:18:35.070Z,9.30
2017-12-01T09:21:02.549Z,8.80
2017-12-01T09:23:30.006Z,8.30
2017-12-01T09:25:57.487Z,8.60
2017-12-01T09:28:24.944Z,8.00
2017-12-01T09:30:52.472Z,8.40
2017-12-01T09:33:19.949Z,8.53
2017-12-01T09:35:47.413Z,8.33
2017-12-01T09:38:15.105Z,8.23
2017-12-01T09:40:42.566Z,8.17
2017-12-01T09:43:10.089Z,9.03
2017-12-01T09:45:37.549Z,9.53
2017-12-01T09:48:05.029Z,8.87
2017-12-01T09:50:32.528Z,22.93
2017-12-01T09:53:00.009Z,11.00
2017-12-01T09:55:27.481Z,11.33
2017-12-01T09:57:54.985Z,13.37
2017-12-01T10:00:22.453Z,14.80
2017-12-01T10:02:49.932Z,15.13
2017-12-01T10:05:17.399Z,46.43
2017-12-01T10:07:45.553Z,10.87
2017-12-01T10:10:13.022Z,27.43
2017-12-01T10:12:40.512Z,12.97
2017-12-01T10:15:07.969Z,8.97
2017-12-01T10:17:35.444Z,9.30
2017-12-01T10:20:02.910Z,9.67
2017-12-01T10:22:30.442Z,9.17
2017-12-01T10:24:57.913Z,10.10
2017-12-01T10:27:25.397Z,10.10
2017-12-01T10:29:52.857Z,9.90
2017-12-01T10:32:20.340Z,10.43
2017-12-01T10:34:47.801Z,9.37
2017-12-01T10:37:15.332Z,8.90
2017-12-01T10:39:42.793Z,9.27
2017-12-01T10:42:10.273Z,10.80
2017-12-01T10:44:37.724Z,9.00
2017-12-01T10:47:05.209Z,9.63
2017-12-01T10:49:32.664Z,8.63
2017-12-01T10:52:00.141Z,9.00
2017-12-01T10:54:27.604Z,9.00
2017-12-01T10:56:55.085Z,8.23
2017-12-01T10:59:22.624Z,9.23
2017-12-01T11:01:50.098Z,8.80
2017-12-01T11:04:17.552Z,8.20
2017-12-01T11:06:45.007Z,7.93
2017-12-01T11:09:12.481Z,8.77
2017-12-01T11:11:39.947Z,7.80
2017-12-01T11:14:07.421Z,8.00
2017-12-01T11:16:34.876Z,8.03
2017-12-01T11:19:02.351Z,7.83
2017-12-01T11:21:29.801Z,7.80
2017-12-01T11:23:57.282Z,7.53
2017-12-01T11:26:24.738Z,7.50
2017-12-01T11:28:52.213Z,7.20
2017-12-01T11:31:19.678Z,8.27
2017-12-01T11:33:47.150Z,8.73
2017-12-01T11:36:14.613Z,9.40
2017-12-01T11:38:42.093Z,9.80
2017-12-01T11:41:09.549Z,7.73
2017-12-01T11:43:37.029Z,8.27
2017-12-01T11:46:04.490Z,7.57
2017-12-01T11:48:31.965Z,7.13
2017-12-01T11:50:59.424Z,7.90
2017-12-01T11:53:26.893Z,7.70
2017-12-01T11:55:54.360Z,6.70
2017-12-01T11:58:21.829Z,7.43
2017-12-01T12:01:00.264Z,7.00
2017-12-01T12:03:27.741Z,7.13
2017-12-01T12:05:55.196Z,6.57
2017-12-01T12:08:23.388Z,7.30
2017-12-01T12:10:50.849Z,6.93
2017-12-01T12:13:18.362Z,7.57
2017-12-01T12:15:45.817Z,8.03
2017-12-01T12:18:13.292Z,7.33
2017-12-01T12:20:40.753Z,9.63
2017-12-01T12:23:08.240Z,11.07
2017-12-01T12:25:35.696Z,7.57
2017-12-01T12:28:03.177Z,7.90
2017-12-01T12:30:30.644Z,7.80
2017-12-01T12:32:58.126Z,7.70
2017-12-01T12:35:25.721Z,7.20
2017-12-01T12:37:53.193Z,7.80
2017-12-01T12:40:20.661Z,8.07
2017-12-01T12:42:48.125Z,9.00
2017-12-01T12:45:15.616Z,9.10
2017-12-01T12:47:43.102Z,10.20
2017-12-01T12:50:10.585Z,8.73
2017-12-01T12:52:38.049Z,10.50
2017-12-01T12:55:05.529Z,10.10
2017-12-01T12:57:33.005Z,11.00
2017-12-01T13:00:00.488Z,10.93
2017-12-01T13:02:28.000Z,10.80
2017-12-01T13:04:55.489Z,11.53
2017-12-01T13:07:22.964Z,12.80
2017-12-01T13:09:50.445Z,12.40
2017-12-01T13:12:17.913Z,11.63
2017-12-01T13:14:45.393Z,12.13
2017-12-01T13:17:12.964Z,12.87
2017-12-01T13:19:40.565Z,11.30
2017-12-01T13:22:08.031Z,11.67
2017-12-01T13:24:35.509Z,11.80
2017-12-01T13:27:02.977Z,13.33
2017-12-01T13:29:30.461Z,12.47
2017-12-01T13:31:57.929Z,13.03
2017-12-01T13:34:25.421Z,13.43
2017-12-01T13:36:52.888Z,12.30
2017-12-01T13:39:20.370Z,13.37
2017-12-01T13:41:47.840Z,12.73
2017-12-01T13:44:15.318Z,12.80
2017-12-01T13:46:42.777Z,14.10
2017-12-01T13:49:10.260Z,14.27
2017-12-01T13:51:37.743Z,14.90
2017-12-01T13:54:05.225Z,13.80
2017-12-01T13:56:32.712Z,14.53
2017-12-01T13:59:00.201Z,15.10
2017-12-01T14:01:27.668Z,14.50
2017-12-01T14:03:55.149Z,14.03
2017-12-01T14:06:22.622Z,15.17
2017-12-01T14:08:50.109Z,15.10
2017-12-01T14:11:17.629Z,14.70
2017-12-01T14:13:45.094Z,13.67
2017-12-01T14:16:12.655Z,14.47
2017-12-01T14:18:40.122Z,15.67
2017-12-01T14:21:07.637Z,16.03
2017-12-01T14:23:35.104Z,14.73
2017-12-01T14:26:02.588Z,15.43
2017-12-01T14:28:30.053Z,15.80
2017-12-01T14:30:57.532Z,16.90
2017-12-01T14:33:25.004Z,16.10
2017-12-01T14:35:52.485Z,17.07
2017-12-01T14:38:19.983Z,17.30
2017-12-01T14:40:47.460Z,15.87
2017-12-01T14:43:14.929Z,16.07
2017-12-01T14:45:42.514Z,17.40
2017-12-01T14:48:10.025Z,18.30
2017-12-01T14:50:37.509Z,18.57
2017-12-01T14:53:05.006Z,17.80
2017-12-01T14:55:32.487Z,18.73
2017-12-01T14:57:59.952Z,17.40
2017-12-01T15:00:27.435Z,17.47
2017-12-01T15:02:54.896Z,18.07
2017-12-01T15:05:22.380Z,19.70
2017-12-01T15:07:49.849Z,18.97
2017-12-01T15:10:17.341Z,19.83
2017-12-01T15:12:44.804Z,17.77
2017-12-01T15:15:12.292Z,18.13
2017-12-01T15:17:39.757Z,18.13
2017-12-01T15:20:07.235Z,19.77
2017-12-01T15:22:34.714Z,20.30
2017-12-01T15:25:02.186Z,20.03
2017-12-01T15:27:29.670Z,18.93
2017-12-01T15:29:57.190Z,21.37
2017-12-01T15:32:25.493Z,19.57
2017-12-01T15:34:52.957Z,17.47
2017-12-01T15:37:20.436Z,18.33
2017-12-01T15:39:48.389Z,19.17
2017-12-01T15:42:15.868Z,18.90
2017-12-01T15:44:43.400Z,18.07
2017-12-01T15:47:10.838Z,19.27
2017-12-01T15:49:38.300Z,19.63
2017-12-01T15:52:05.785Z,19.37
2017-12-01T15:54:33.259Z,17.83
2017-12-01T15:57:00.802Z,19.37
2017-12-01T15:59:28.305Z,18.67
2017-12-01T16:01:55.874Z,19.27
2017-12-01T16:04:23.342Z,19.47
2017-12-01T16:06:50.827Z,19.13
2017-12-01T16:09:18.318Z,20.10
2017-12-01T16:11:45.801Z,20.73
2017-12-01T16:14:13.365Z,20.67
2017-12-01T16:16:40.877Z,22.83
2017-12-01T16:19:08.353Z,22.23
2017-12-01T16:21:35.851Z,22.70
2017-12-01T16:24:03.320Z,25.13
2017-12-01T16:26:30.808Z,26.60
2017-12-01T16:28:58.282Z,26.30
2017-12-01T16:31:25.765Z,27.27
2017-12-01T16:33:53.245Z,26.57
2017-12-01T16:36:20.841Z,26.00
2017-12-01T16:38:48.324Z,25.53
2017-12-01T16:41:16.456Z,28.00
2017-12-01T16:43:43.921Z,26.43
2017-12-01T16:46:11.434Z,27.57
2017-12-01T16:48:38.900Z,28.40
2017-12-01T16:51:06.392Z,27.43
2017-12-01T16:53:33.862Z,27.03
2017-12-01T16:56:01.425Z,26.80
2017-12-01T16:58:28.901Z,26.97
2017-12-01T17:00:56.393Z,26.80
2017-12-01T17:03:23.861Z,26.87
2017-12-01T17:05:51.356Z,27.90
2017-12-01T17:08:18.825Z,26.63
2017-12-01T17:10:46.317Z,28.43
2017-12-01T17:13:14.702Z,26.70
2017-12-01T17:15:42.183Z,26.83
2017-12-01T17:18:09.669Z,27.47
2017-12-01T17:20:37.142Z,27.63
2017-12-01T17:23:04.629Z,27.23
2017-12-01T17:25:32.152Z,26.87
2017-12-01T17:27:59.641Z,27.63
2017-12-01T17:30:27.113Z,29.47
2017-12-01T17:32:54.679Z,29.47
2017-12-01T17:35:22.144Z,31.30
2017-12-01T17:37:49.629Z,30.90
2017-12-01T17:40:17.093Z,31.10
2017-12-01T17:42:44.581Z,32.73
2017-12-01T17:45:12.056Z,31.70
2017-12-01T17:47:39.540Z,32.87
2017-12-01T17:50:07.004Z,34.50
2017-12-01T17:52:34.489Z,32.50
2017-12-01T17:55:01.965Z,36.93
2017-12-01T17:57:29.549Z,33.37
2017-12-01T17:59:57.036Z,35.73
2017-12-01T18:02:24.548Z,37.27
2017-12-01T18:04:52.242Z,37.40
2017-12-01T18:07:19.728Z,35.47
2017-12-01T18:09:47.201Z,35.93
2017-12-01T18:12:14.692Z,34.80
2017-12-01T18:14:42.169Z,32.60
2017-12-01T18:17:09.657Z,32.53
2017-12-01T18:19:37.139Z,33.03
2017-12-01T18:22:04.628Z,32.87
2017-12-01T18:24:32.097Z,33.43
2017-12-01T18:26:59.599Z,31.03
2017-12-01T18:29:27.069Z,30.97
2017-12-01T18:31:54.559Z,31.73
2017-12-01T18:34:22.039Z,30.07
2017-12-01T18:36:49.549Z,29.23
2017-12-01T18:39:17.442Z,31.37
2017-12-01T18:41:44.921Z,30.47
2017-12-01T18:44:12.404Z,28.97
2017-12-01T18:46:39.877Z,28.37
2017-12-01T18:49:07.458Z,29.40
2017-12-01T18:51:34.965Z,29.10
2017-12-01T18:54:02.448Z,28.50
2017-12-01T18:56:29.919Z,29.70
2017-12-01T18:58:57.404Z,28.10
2017-12-01T19:01:24.876Z,31.03
2017-12-01T19:03:52.361Z,29.20
2017-12-01T19:06:19.827Z,29.20
2017-12-01T19:08:47.321Z,27.87
2017-12-01T19:11:14.789Z,28.67
2017-12-01T19:13:42.272Z,29.80
2017-12-01T19:16:10.146Z,29.70
2017-12-01T19:18:37.676Z,28.00
2017-12-01T19:21:05.149Z,27.90
2017-12-01T19:23:32.680Z,26.60
2017-12-01T19:26:00.156Z,27.97
2017-12-01T19:28:27.674Z,27.47
2017-12-01T19:30:55.318Z,26.93
2017-12-01T19:33:22.833Z,28.47
2017-12-01T19:35:50.310Z,29.13
2017-12-01T19:38:17.801Z,29.07
2017-12-01T19:40:45.276Z,29.47
2017-12-01T19:43:12.761Z,29.97
2017-12-01T19:45:40.284Z,31.23
2017-12-01T19:48:07.781Z,31.63
2017-12-01T19:50:35.281Z,31.77
2017-12-01T19:53:02.776Z,32.27
2017-12-01T19:55:30.251Z,30.27
2017-12-01T19:57:57.732Z,32.40
2017-12-01T20:00:25.201Z,31.80
2017-12-01T20:02:52.690Z,34.63
2017-12-01T20:05:20.174Z,34.37
2017-12-01T20:07:48.540Z,35.20
2017-12-01T20:10:16.014Z,34.07
2017-12-01T20:12:43.484Z,34.07
2017-12-01T20:15:11.321Z,35.13
2017-12-01T20:17:38.793Z,33.63
2017-12-01T20:20:06.277Z,33.47
2017-12-01T20:22:33.745Z,36.10
2017-12-01T20:25:01.228Z,38.37
2017-12-01T20:27:28.701Z,37.53
2017-12-01T20:29:56.184Z,40.50
2017-12-01T20:32:24.009Z,38.63
2017-12-01T20:34:51.496Z,38.77
2017-12-01T20:37:18.979Z,38.23
2017-12-01T20:39:46.469Z,41.30
2017-12-01T20:42:13.945Z,43.93
2017-12-01T20:44:41.927Z,43.90
2017-12-01T20:47:09.405Z,39.63
2017-12-01T20:49:36.913Z,44.53
2017-12-01T20:52:04.377Z,42.47
2017-12-01T20:54:31.886Z,44.73
2017-12-01T20:56:59.352Z,42.87
2017-12-01T20:59:26.841Z,41.07
2017-12-01T21:01:54.314Z,40.13
2017-12-01T21:04:21.822Z,51.17
2017-12-01T21:06:49.333Z,40.83
2017-12-01T21:09:16.820Z,51.47
2017-12-01T21:11:44.293Z,50.17
2017-12-01T21:14:11.787Z,47.17
2017-12-01T21:16:39.262Z,50.50
2017-12-01T21:19:06.752Z,51.20
2017-12-01T21:21:34.274Z,50.47
2017-12-01T21:24:02.117Z,50.20
2017-12-01T21:26:30.381Z,48.10
2017-12-01T21:28:57.871Z,47.47
2017-12-01T21:31:26.153Z,47.53
2017-12-01T21:33:53.641Z,47.13
2017-12-01T21:36:21.105Z,48.37
2017-12-01T21:38:48.588Z,46.07
2017-12-01T21:41:16.697Z,48.60
2017-12-01T21:43:44.185Z,47.53
2017-12-01T21:46:11.668Z,47.60
2017-12-01T21:48:39.480Z,46.10
2017-12-01T21:51:06.964Z,46.40
2017-12-01T21:53:34.461Z,48.33
2017-12-01T21:56:02.004Z,44.67
2017-12-01T21:58:29.476Z,53.90
2017-12-01T22:00:56.965Z,57.30
2017-12-01T22:03:24.476Z,56.90
2017-12-01T22:05:51.965Z,56.57
2017-12-01T22:08:19.442Z,57.77
2017-12-01T22:10:46.928Z,51.30
2017-12-01T22:13:14.396Z,55.30
2017-12-01T22:15:41.885Z,54.00
2017-12-01T22:18:09.361Z,62.77
2017-12-01T22:20:36.845Z,60.03
2017-12-01T22:23:04.335Z,59.10
2017-12-01T22:25:31.843Z,61.50
2017-12-01T22:27:59.317Z,60.23
2017-12-01T22:30:26.809Z,59.60
2017-12-01T22:32:54.284Z,58.30
2017-12-01T22:35:22.456Z,56.83
2017-12-01T22:37:49.932Z,58.17
2017-12-01T22:40:17.420Z,57.27
2017-12-01T22:42:45.020Z,57.20
2017-12-01T22:45:12.662Z,60.60
2017-12-01T22:47:40.242Z,56.67
2017-12-01T22:50:07.729Z,56.33
2017-12-01T22:52:35.201Z,54.93
2017-12-01T22:55:02.688Z,53.63
2017-12-01T22:57:33.893Z,54.93
2017-12-01T23:00:02.261Z,59.93
2017-12-01T23:02:29.736Z,64.03
2017-12-01T23:04:57.234Z,65.23
2017-12-01T23:07:24.710Z,61.93
2017-12-01T23:09:52.207Z,59.77
2017-12-01T23:12:19.681Z,58.80
2017-12-01T23:14:47.186Z,56.90
2017-12-01T23:17:14.756Z,57.43
2017-12-01T23:19:42.304Z,48.60
2017-12-01T23:22:09.793Z,50.40
2017-12-01T23:24:37.360Z,50.17
2017-12-01T23:27:04.848Z,46.90
2017-12-01T23:29:32.316Z,45.20
2017-12-01T23:31:59.808Z,39.10
2017-12-01T23:34:27.277Z,38.27
2017-12-01T23:36:54.766Z,40.10
2017-12-01T23:39:22.304Z,37.10
2017-12-01T23:41:49.789Z,37.73
2017-12-01T23:44:17.281Z,37.93
2017-12-01T23:46:44.768Z,36.00
2017-12-01T23:49:12.228Z,37.53
2017-12-01T23:51:39.708Z,35.27
2017-12-01T23:54:07.177Z,36.87
2017-12-01T23:56:34.664Z,38.17
2017-12-01T23:59:02.211Z,37.60
